createdAt,value
2019-02-27T00:00:15.645Z,6.90
2019-02-27T00:02:42.353Z,6.83
2019-02-27T00:05:09.095Z,5.67
2019-02-27T00:07:35.817Z,7.20
2019-02-27T00:10:05.943Z,8.23
2019-02-27T00:12:29.430Z,7.77
2019-02-27T00:14:56.154Z,7.47
2019-02-27T00:17:22.922Z,7.07
2019-02-27T00:19:49.635Z,8.50
2019-02-27T00:22:17.714Z,7.50
2019-02-27T00:24:43.114Z,7.20
2019-02-27T00:27:09.862Z,7.73
2019-02-27T00:29:36.594Z,7.50
2019-02-27T00:32:03.439Z,7.00
2019-02-27T00:34:32.850Z,7.53
2019-02-27T00:36:56.922Z,7.77
2019-02-27T00:39:23.654Z,8.03
2019-02-27T00:41:50.393Z,8.40
2019-02-27T00:44:17.122Z,8.27
2019-02-27T00:46:44.027Z,7.97
2019-02-27T00:49:10.606Z,6.97
2019-02-27T00:51:37.359Z,7.70
2019-02-27T00:54:04.116Z,7.73
2019-02-27T00:56:30.863Z,7.50
2019-02-27T00:58:59.878Z,7.30
2019-02-27T01:01:24.342Z,7.43
2019-02-27T01:03:51.066Z,7.73
2019-02-27T01:06:17.826Z,7.40
2019-02-27T01:08:44.917Z,7.23
2019-02-27T01:11:12.301Z,8.07
2019-02-27T01:13:39.038Z,8.17
2019-02-27T01:16:05.764Z,8.07
2019-02-27T01:18:32.498Z,8.20
2019-02-27T01:20:59.210Z,6.50
2019-02-27T01:23:25.946Z,7.67
2019-02-27T01:25:56.108Z,8.20
2019-02-27T01:28:19.401Z,8.83
2019-02-27T01:30:46.122Z,8.20
2019-02-27T01:33:12.862Z,7.57
2019-02-27T01:35:39.602Z,9.20
2019-02-27T01:38:06.342Z,7.97
2019-02-27T01:40:33.073Z,7.87
2019-02-27T01:42:59.810Z,7.77
2019-02-27T01:45:26.526Z,7.57
2019-02-27T01:47:53.257Z,8.23
2019-02-27T01:50:26.969Z,7.77
2019-02-27T01:52:53.717Z,7.50
2019-02-27T01:55:22.451Z,7.57
2019-02-27T01:57:47.189Z,7.10
2019-02-27T02:00:13.906Z,8.23
2019-02-27T02:02:40.638Z,8.20
2019-02-27T02:05:07.359Z,7.93
2019-02-27T02:07:34.091Z,6.80
2019-02-27T02:10:00.805Z,7.57
2019-02-27T02:12:29.880Z,7.83
2019-02-27T02:15:08.393Z,7.43
2019-02-27T02:18:18.189Z,6.87
2019-02-27T02:21:04.539Z,6.43
2019-02-27T02:23:54.753Z,6.27
2019-02-27T02:26:53.415Z,6.30
2019-02-27T02:30:00.469Z,6.30
2019-02-27T02:32:36.688Z,6.10
2019-02-27T02:35:19.790Z,5.90
2019-02-27T02:38:15.225Z,6.27
2019-02-27T02:41:27.954Z,5.87
2019-02-27T02:44:22.906Z,6.37
2019-02-27T02:47:19.529Z,6.00
2019-02-27T02:50:08.788Z,6.75
2019-02-27T02:53:09.585Z,6.60
2019-02-27T02:55:49.321Z,6.30
2019-02-27T02:58:28.261Z,5.40
2019-02-27T03:01:02.037Z,6.43
2019-02-27T03:03:54.174Z,6.60
2019-02-27T03:06:36.129Z,5.80
2019-02-27T03:09:13.830Z,6.60
2019-02-27T03:11:54.006Z,7.07
2019-02-27T03:14:28.574Z,7.27
2019-02-27T03:17:17.868Z,5.73
2019-02-27T03:19:51.343Z,6.73
2019-02-27T03:22:27.478Z,6.57
2019-02-27T03:25:22.118Z,5.57
2019-02-27T03:28:05.870Z,6.03
2019-02-27T03:31:17.955Z,6.13
2019-02-27T03:34:12.119Z,5.70
2019-02-27T03:36:55.121Z,6.00
2019-02-27T03:39:35.143Z,6.30
2019-02-27T03:42:30.822Z,6.40
2019-02-27T03:45:13.212Z,6.33
2019-02-27T03:48:00.738Z,6.10
2019-02-27T03:50:59.230Z,6.80
2019-02-27T03:53:39.071Z,7.20
2019-02-27T03:56:19.725Z,7.00
2019-02-27T03:58:52.910Z,6.50
2019-02-27T04:01:39.951Z,7.00
2019-02-27T04:04:20.843Z,6.95
2019-02-27T04:07:18.779Z,6.53
2019-02-27T04:09:45.559Z,6.87
2019-02-27T04:12:16.127Z,7.43
2019-02-27T04:14:41.780Z,8.00
2019-02-27T04:17:07.542Z,6.60
2019-02-27T04:19:38.759Z,7.60
2019-02-27T04:22:01.189Z,7.60
2019-02-27T04:24:25.986Z,7.63
2019-02-27T04:26:52.709Z,6.80
2019-02-27T04:29:19.424Z,7.30
2019-02-27T04:31:46.160Z,7.07
2019-02-27T04:34:12.875Z,7.50
2019-02-27T04:36:39.628Z,8.17
2019-02-27T04:39:06.367Z,7.95
2019-02-27T04:41:33.094Z,7.37
2019-02-27T04:43:59.805Z,6.97
2019-02-27T04:46:26.515Z,7.30
2019-02-27T04:48:53.234Z,7.57
2019-02-27T04:51:19.950Z,7.77
2019-02-27T04:53:46.702Z,7.90
2019-02-27T04:56:13.418Z,7.20
2019-02-27T04:58:42.849Z,6.50
2019-02-27T05:01:06.857Z,7.40
2019-02-27T05:03:33.621Z,7.97
2019-02-27T05:06:00.337Z,8.17
2019-02-27T05:08:27.735Z,8.67
2019-02-27T05:10:53.778Z,9.10
2019-02-27T05:13:20.931Z,7.70
2019-02-27T05:15:47.229Z,8.13
2019-02-27T05:18:13.965Z,7.90
2019-02-27T05:20:44.997Z,8.20
2019-02-27T05:23:07.554Z,8.60
2019-02-27T05:25:34.274Z,8.27
2019-02-27T05:28:01.532Z,7.43
2019-02-27T05:30:27.714Z,8.40
2019-02-27T05:32:54.443Z,7.63
2019-02-27T05:35:23.705Z,7.50
2019-02-27T05:37:47.918Z,8.30
2019-02-27T05:40:14.642Z,7.70
2019-02-27T05:42:41.370Z,7.27
2019-02-27T05:45:09.706Z,8.00
2019-02-27T05:47:36.434Z,7.50
2019-02-27T05:50:04.210Z,6.37
2019-02-27T05:52:30.938Z,6.30
2019-02-27T05:54:57.730Z,6.47
2019-02-27T05:57:24.454Z,8.08
2019-02-27T05:59:51.178Z,7.30
2019-02-27T06:02:17.921Z,7.67
2019-02-27T06:04:44.661Z,8.00
2019-02-27T06:07:11.389Z,7.40
2019-02-27T06:09:38.116Z,7.33
2019-02-27T06:12:06.855Z,6.67
2019-02-27T06:14:31.582Z,7.40
2019-02-27T06:16:58.305Z,7.70
2019-02-27T06:19:25.045Z,6.30
2019-02-27T06:21:56.099Z,7.20
2019-02-27T06:24:18.509Z,6.53
2019-02-27T06:26:45.225Z,7.20
2019-02-27T06:29:11.949Z,7.70
2019-02-27T06:31:39.540Z,6.87
2019-02-27T06:34:05.377Z,7.83
2019-02-27T06:36:32.113Z,7.20
2019-02-27T06:39:00.341Z,7.60
2019-02-27T06:41:25.558Z,6.90
2019-02-27T06:43:52.278Z,6.90
2019-02-27T06:46:20.077Z,7.00
2019-02-27T06:48:45.725Z,7.57
2019-02-27T06:51:12.441Z,7.73
2019-02-27T06:53:39.186Z,7.40
2019-02-27T06:56:05.900Z,7.40
2019-02-27T06:58:32.622Z,8.23
2019-02-27T07:00:59.335Z,7.90
2019-02-27T07:03:29.283Z,7.93
2019-02-27T07:05:52.851Z,7.37
2019-02-27T07:08:19.629Z,8.07
2019-02-27T07:10:46.354Z,8.23
2019-02-27T07:13:13.066Z,8.40
2019-02-27T07:15:39.794Z,7.30
2019-02-27T07:18:06.747Z,8.00
2019-02-27T07:20:33.432Z,7.70
2019-02-27T07:23:00.141Z,7.47
2019-02-27T07:25:27.010Z,7.57
2019-02-27T07:27:53.726Z,8.57
2019-02-27T07:30:20.470Z,7.90
2019-02-27T07:32:47.185Z,8.03
2019-02-27T07:35:13.917Z,7.73
2019-02-27T07:37:40.638Z,7.90
2019-02-27T07:40:09.373Z,7.90
2019-02-27T07:42:36.359Z,8.73
2019-02-27T07:45:02.678Z,9.17
2019-02-27T07:47:29.397Z,9.57
2019-02-27T07:49:56.138Z,8.53
2019-02-27T07:52:22.854Z,8.73
2019-02-27T07:54:49.609Z,8.73
2019-02-27T07:57:16.329Z,9.03
2019-02-27T07:59:43.065Z,9.57
2019-02-27T08:02:09.793Z,8.53
2019-02-27T08:04:36.530Z,8.50
2019-02-27T08:07:03.258Z,12.10
2019-02-27T08:09:30.732Z,11.90
2019-02-27T08:11:56.804Z,10.40
2019-02-27T08:14:23.542Z,12.13
2019-02-27T08:16:50.287Z,10.60
2019-02-27T08:19:17.060Z,9.70
2019-02-27T08:21:43.780Z,9.20
2019-02-27T08:24:11.528Z,7.40
2019-02-27T08:26:38.511Z,8.07
2019-02-27T08:29:05.246Z,9.07
2019-02-27T08:31:32.187Z,8.23
2019-02-27T08:33:58.897Z,7.83
2019-02-27T08:36:25.626Z,8.97
2019-02-27T08:38:52.344Z,7.63
2019-02-27T08:41:19.254Z,8.27
2019-02-27T08:43:45.975Z,7.40
2019-02-27T08:46:12.722Z,7.33
2019-02-27T08:48:39.542Z,8.15
2019-02-27T08:53:34.480Z,7.00
2019-02-27T08:55:59.777Z,7.93
2019-02-27T08:58:28.964Z,8.10
2019-02-27T09:00:53.254Z,7.93
2019-02-27T09:03:20.784Z,7.50
2019-02-27T09:05:46.746Z,7.30
2019-02-27T09:08:13.470Z,7.20
2019-02-27T09:10:40.320Z,7.67
2019-02-27T09:13:07.051Z,7.27
2019-02-27T09:15:33.906Z,8.03
2019-02-27T09:18:01.918Z,6.80
2019-02-27T09:20:27.478Z,7.53
2019-02-27T09:22:55.824Z,8.70
2019-02-27T09:25:23.894Z,8.47
2019-02-27T09:27:47.713Z,8.07
2019-02-27T09:30:14.651Z,7.83
2019-02-27T09:32:43.270Z,8.17
2019-02-27T09:35:08.164Z,8.00
2019-02-27T09:37:34.866Z,7.90
2019-02-27T09:40:04.826Z,8.87
2019-02-27T09:42:28.346Z,8.57
2019-02-27T09:44:55.202Z,8.97
2019-02-27T09:47:23.207Z,9.53
2019-02-27T09:49:48.742Z,8.03
2019-02-27T09:52:15.481Z,8.97
2019-02-27T09:54:46.792Z,9.00
2019-02-27T09:57:08.929Z,8.30
2019-02-27T09:59:35.737Z,10.10
2019-02-27T10:02:02.477Z,10.00
2019-02-27T10:04:29.206Z,9.70
2019-02-27T10:06:55.934Z,9.53
2019-02-27T10:09:22.653Z,9.87
2019-02-27T10:11:52.200Z,9.33
2019-02-27T10:14:16.403Z,10.37
2019-02-27T10:16:42.938Z,9.30
2019-02-27T10:19:09.962Z,9.23
2019-02-27T10:21:36.719Z,10.00
2019-02-27T10:24:04.791Z,9.53
2019-02-27T10:26:30.284Z,9.70
2019-02-27T10:28:57.114Z,10.00
2019-02-27T10:31:25.979Z,10.13
2019-02-27T10:33:50.557Z,9.63
2019-02-27T10:36:17.285Z,9.80
2019-02-27T10:38:45.446Z,9.87
2019-02-27T10:41:10.818Z,11.10
2019-02-27T10:43:37.677Z,10.43
2019-02-27T10:46:04.422Z,9.77
2019-02-27T10:48:31.145Z,10.87
2019-02-27T10:50:57.889Z,10.03
2019-02-27T10:53:27.135Z,10.67
2019-02-27T10:55:51.379Z,10.53
2019-02-27T10:58:18.109Z,10.23
2019-02-27T11:00:46.357Z,10.87
2019-02-27T11:03:12.350Z,10.67
2019-02-27T11:05:39.185Z,11.53
2019-02-27T11:08:05.910Z,12.13
2019-02-27T11:10:32.641Z,11.30
2019-02-27T11:12:59.366Z,11.00
2019-02-27T11:15:26.090Z,10.90
2019-02-27T11:17:53.494Z,11.57
2019-02-27T11:20:21.007Z,12.13
2019-02-27T11:22:46.313Z,11.47
2019-02-27T11:25:14.655Z,11.10
2019-02-27T11:27:41.390Z,11.40
2019-02-27T11:30:13.165Z,12.10
2019-02-27T11:32:39.902Z,12.37
2019-02-27T11:35:06.618Z,12.10
2019-02-27T11:37:33.356Z,11.87
2019-02-27T11:40:00.226Z,11.17
2019-02-27T11:42:29.048Z,12.35
2019-02-27T11:44:53.605Z,11.97
2019-02-27T11:47:20.341Z,11.73
2019-02-27T11:49:47.062Z,11.87
2019-02-27T11:52:13.802Z,10.93
2019-02-27T11:54:43.124Z,13.93
2019-02-27T11:57:07.282Z,13.53
2019-02-27T11:59:34.074Z,13.40
2019-02-27T12:02:00.811Z,13.62
2019-02-27T12:04:27.538Z,13.33
2019-02-27T12:06:54.277Z,13.20
2019-02-27T12:09:20.998Z,14.20
2019-02-27T12:11:48.824Z,12.47
2019-02-27T12:14:14.517Z,13.40
2019-02-27T12:16:41.258Z,13.20
2019-02-27T12:19:08.752Z,13.80
2019-02-27T12:21:34.714Z,13.03
2019-02-27T12:24:01.462Z,13.10
2019-02-27T12:26:28.206Z,13.13
2019-02-27T12:28:54.931Z,13.60
2019-02-27T12:31:21.793Z,12.47
2019-02-27T12:33:48.648Z,13.90
2019-02-27T12:36:16.103Z,13.10
2019-02-27T12:38:42.560Z,13.67
2019-02-27T12:41:08.934Z,12.90
2019-02-27T12:43:35.689Z,12.27
2019-02-27T12:46:02.448Z,12.87
2019-02-27T12:48:29.189Z,11.70
2019-02-27T12:50:55.910Z,12.33
2019-02-27T12:53:22.658Z,11.27
2019-02-27T12:55:49.377Z,11.90
2019-02-27T12:58:16.118Z,13.00
2019-02-27T13:00:43.148Z,12.47
2019-02-27T13:03:09.600Z,11.00
2019-02-27T13:05:36.323Z,12.33
2019-02-27T13:08:03.074Z,11.23
2019-02-27T13:10:34.046Z,10.17
2019-02-27T13:12:56.617Z,11.13
2019-02-27T13:15:23.459Z,10.70
2019-02-27T13:17:50.206Z,12.10
2019-02-27T13:20:18.786Z,10.10
2019-02-27T13:22:45.520Z,11.10
2019-02-27T13:25:12.274Z,11.43
2019-02-27T13:27:40.385Z,12.20
2019-02-27T13:30:09.169Z,11.10
2019-02-27T13:32:33.578Z,11.00
2019-02-27T13:35:00.330Z,10.60
2019-02-27T13:37:27.158Z,9.87
2019-02-27T13:39:53.908Z,10.70
2019-02-27T13:42:20.642Z,10.13
2019-02-27T13:44:47.407Z,11.22
2019-02-27T13:47:14.134Z,10.80
2019-02-27T13:49:40.871Z,9.90
2019-02-27T13:52:12.138Z,10.57
2019-02-27T13:54:37.357Z,10.47
2019-02-27T13:57:01.099Z,10.57
2019-02-27T13:59:27.830Z,9.67
2019-02-27T14:01:54.582Z,9.77
2019-02-27T14:04:22.625Z,10.00
2019-02-27T14:06:48.175Z,9.10
2019-02-27T14:09:14.906Z,9.53
2019-02-27T14:11:41.658Z,9.60
2019-02-27T14:14:08.402Z,9.97
2019-02-27T14:16:35.605Z,9.13
2019-02-27T14:19:02.366Z,10.20
2019-02-27T14:21:29.115Z,11.20
2019-02-27T14:23:55.850Z,10.40
2019-02-27T14:26:22.611Z,9.40
2019-02-27T14:28:49.434Z,7.20
2019-02-27T14:31:16.281Z,9.63
2019-02-27T14:33:43.011Z,11.50
2019-02-27T14:36:09.886Z,12.17
2019-02-27T14:38:36.614Z,12.97
2019-02-27T14:41:03.374Z,13.40
2019-02-27T14:43:30.110Z,12.57
2019-02-27T14:45:56.869Z,12.60
2019-02-27T14:48:23.622Z,9.00
2019-02-27T14:50:50.402Z,7.70
2019-02-27T14:53:19.708Z,8.20
2019-02-27T14:55:43.982Z,8.10
2019-02-27T14:58:10.714Z,8.00
2019-02-27T15:00:40.900Z,9.67
2019-02-27T15:03:04.341Z,8.27
2019-02-27T15:05:31.230Z,8.98
2019-02-27T15:07:57.975Z,9.70
2019-02-27T15:10:24.726Z,7.70
2019-02-27T15:12:55.046Z,8.30
2019-02-27T15:15:20.130Z,8.33
2019-02-27T15:17:46.867Z,7.53
2019-02-27T15:20:14.232Z,7.37
2019-02-27T15:22:40.966Z,7.80
2019-02-27T15:25:09.434Z,7.50
2019-02-27T15:27:36.196Z,7.30
2019-02-27T15:30:02.981Z,6.83
2019-02-27T15:32:30.297Z,7.20
2019-02-27T15:34:56.526Z,6.70
2019-02-27T15:37:23.282Z,8.17
2019-02-27T15:39:51.938Z,7.43
2019-02-27T15:42:16.778Z,6.80
2019-02-27T15:44:43.510Z,7.23
2019-02-27T15:47:10.333Z,7.53
2019-02-27T15:49:37.070Z,7.87
2019-02-27T15:52:06.972Z,8.10
2019-02-27T15:54:30.566Z,7.60
2019-02-27T15:56:57.314Z,7.50
2019-02-27T15:59:24.134Z,8.23
2019-02-27T16:01:50.985Z,7.50
2019-02-27T16:04:21.062Z,8.10
2019-02-27T16:06:44.569Z,8.50
2019-02-27T16:09:11.307Z,8.00
2019-02-27T16:11:38.061Z,8.97
2019-02-27T16:14:09.138Z,7.07
2019-02-27T16:16:31.651Z,8.40
2019-02-27T16:18:58.374Z,9.03
2019-02-27T16:21:25.114Z,8.67
2019-02-27T16:23:51.841Z,7.80
2019-02-27T16:26:18.593Z,8.70
2019-02-27T16:28:46.106Z,8.17
2019-02-27T16:31:12.175Z,9.20
2019-02-27T16:33:38.902Z,9.30
2019-02-27T16:36:05.647Z,8.83
2019-02-27T16:38:32.594Z,8.53
2019-02-27T16:40:59.106Z,8.73
2019-02-27T16:43:25.880Z,9.40
2019-02-27T16:45:52.614Z,8.77
2019-02-27T16:48:19.395Z,9.00
2019-02-27T16:50:46.125Z,9.73
2019-02-27T16:53:15.679Z,10.00
2019-02-27T16:55:39.692Z,9.50
2019-02-27T16:58:06.338Z,10.45
2019-02-27T17:00:33.170Z,9.83
2019-02-27T17:02:59.897Z,8.83
2019-02-27T17:05:26.650Z,8.77
2019-02-27T17:07:53.505Z,8.50
2019-02-27T17:10:22.621Z,9.90
2019-02-27T17:12:49.357Z,9.27
2019-02-27T17:15:16.089Z,8.73
2019-02-27T17:17:42.826Z,8.30
2019-02-27T17:20:12.837Z,10.05
2019-02-27T17:22:38.556Z,9.13
2019-02-27T17:25:06.242Z,8.70
2019-02-27T17:27:32.995Z,8.40
2019-02-27T17:30:00.745Z,9.30
2019-02-27T17:32:27.466Z,9.37
2019-02-27T17:34:53.178Z,8.83
2019-02-27T17:37:19.950Z,8.20
2019-02-27T17:39:46.672Z,9.27
2019-02-27T17:42:18.313Z,8.73
2019-02-27T17:44:40.422Z,8.47
2019-02-27T17:47:08.240Z,8.70
2019-02-27T17:49:33.893Z,8.37
2019-02-27T17:52:00.743Z,8.40
2019-02-27T17:54:31.370Z,10.57
2019-02-27T17:56:54.209Z,9.30
2019-02-27T17:59:20.921Z,9.10
2019-02-27T18:01:47.645Z,9.73
2019-02-27T18:04:15.106Z,8.90
2019-02-27T18:06:41.112Z,8.47
2019-02-27T18:09:07.924Z,9.80
2019-02-27T18:11:34.642Z,9.17
2019-02-27T18:14:01.373Z,9.53
2019-02-27T18:16:28.101Z,8.80
2019-02-27T18:18:54.858Z,8.67
2019-02-27T18:21:21.579Z,9.33
2019-02-27T18:23:48.334Z,9.30
2019-02-27T18:26:15.804Z,8.93
2019-02-27T18:28:41.805Z,11.03
2019-02-27T18:31:08.513Z,10.00
2019-02-27T18:33:35.268Z,10.60
2019-02-27T18:36:04.868Z,9.83
2019-02-27T18:38:28.726Z,8.50
2019-02-27T18:40:55.445Z,8.67
2019-02-27T18:43:22.200Z,8.73
2019-02-27T18:45:50.861Z,8.50
2019-02-27T18:48:15.762Z,9.90
2019-02-27T18:50:42.542Z,8.97
2019-02-27T18:53:12.949Z,9.30
2019-02-27T18:55:36.073Z,10.17
2019-02-27T18:58:02.957Z,9.93
2019-02-27T19:00:29.695Z,9.57
2019-02-27T19:02:56.624Z,11.10
2019-02-27T19:05:23.346Z,12.40
2019-02-27T19:07:53.657Z,10.53
2019-02-27T19:10:16.851Z,10.50
2019-02-27T19:12:43.570Z,11.65
2019-02-27T19:15:12.118Z,10.10
2019-02-27T19:17:38.694Z,10.30
2019-02-27T19:20:06.939Z,10.40
2019-02-27T19:22:33.673Z,11.15
2019-02-27T19:25:00.839Z,9.40
2019-02-27T19:27:27.133Z,9.30
2019-02-27T19:29:53.841Z,9.38
2019-02-27T19:32:23.192Z,8.63
2019-02-27T19:34:48.154Z,8.23
2019-02-27T19:37:14.026Z,10.07
2019-02-27T19:39:40.742Z,9.73
2019-02-27T19:42:10.276Z,9.70
2019-02-27T19:44:34.422Z,11.73
2019-02-27T19:47:01.126Z,11.50
2019-02-27T19:49:27.838Z,12.20
2019-02-27T19:51:55.448Z,11.20
2019-02-27T19:54:21.329Z,11.80
2019-02-27T19:56:48.058Z,12.27
2019-02-27T19:59:14.781Z,10.23
2019-02-27T20:01:46.289Z,12.37
2019-02-27T20:04:09.655Z,11.73
2019-02-27T20:06:34.997Z,10.80
2019-02-27T20:09:01.708Z,11.53
2019-02-27T20:11:28.432Z,12.50
2019-02-27T20:13:55.166Z,10.57
2019-02-27T20:16:21.970Z,10.67
2019-02-27T20:18:54.805Z,12.43
2019-02-27T20:21:15.441Z,11.50
2019-02-27T20:23:42.166Z,10.60
2019-02-27T20:26:13.996Z,11.57
2019-02-27T20:28:35.618Z,10.73
2019-02-27T20:31:02.325Z,12.50
2019-02-27T20:33:29.084Z,11.30
2019-02-27T20:35:56.704Z,10.47
2019-02-27T20:38:22.555Z,11.23
2019-02-27T20:40:49.279Z,12.17
2019-02-27T20:43:16.017Z,11.63
2019-02-27T20:45:43.641Z,10.80
2019-02-27T20:48:09.582Z,10.80
2019-02-27T20:50:38.698Z,9.90
2019-02-27T20:53:05.798Z,12.30
2019-02-27T20:55:32.523Z,12.13
2019-02-27T20:57:59.257Z,12.17
2019-02-27T21:00:25.977Z,13.07
2019-02-27T21:02:53.491Z,9.90
2019-02-27T21:05:19.433Z,11.03
2019-02-27T21:07:46.170Z,9.50
2019-02-27T21:10:19.993Z,9.43
2019-02-27T21:12:51.070Z,9.70
2019-02-27T21:15:09.086Z,9.00
2019-02-27T21:17:35.821Z,16.07
2019-02-27T21:20:02.609Z,20.53
2019-02-27T21:22:29.342Z,11.93
2019-02-27T21:24:56.085Z,16.30
2019-02-27T21:27:22.875Z,13.60
2019-02-27T21:29:49.618Z,12.17
2019-02-27T21:32:16.337Z,11.13
2019-02-27T21:34:43.166Z,11.67
2019-02-27T21:37:10.066Z,17.00
2019-02-27T21:39:36.617Z,12.77
2019-02-27T21:42:03.366Z,12.43
2019-02-27T21:44:30.125Z,12.98
2019-02-27T21:46:56.813Z,11.23
2019-02-27T21:49:23.560Z,13.75
2019-02-27T21:51:50.358Z,12.10
2019-02-27T21:54:18.976Z,12.87
2019-02-27T21:56:45.378Z,10.97
2019-02-27T21:59:12.166Z,11.07
2019-02-27T22:01:38.898Z,12.27
2019-02-27T22:04:05.642Z,11.90
2019-02-27T22:06:32.357Z,13.13
2019-02-27T22:08:59.093Z,12.40
2019-02-27T22:11:27.106Z,10.77
2019-02-27T22:13:52.689Z,12.10
2019-02-27T22:16:19.416Z,13.20
2019-02-27T22:18:47.003Z,13.00
2019-02-27T22:21:14.248Z,12.57
2019-02-27T22:23:39.643Z,11.50
2019-02-27T22:26:06.369Z,10.70
2019-02-27T22:28:33.134Z,11.50
2019-02-27T22:30:59.853Z,12.20
2019-02-27T22:33:26.610Z,12.00
2019-02-27T22:35:53.330Z,10.50
2019-02-27T22:38:20.082Z,10.67
2019-02-27T22:40:46.803Z,10.93
2019-02-27T22:43:13.550Z,10.30
2019-02-27T22:45:43.846Z,12.10
2019-02-27T22:48:07.005Z,12.83
2019-02-27T22:50:33.773Z,11.47
2019-02-27T22:53:00.492Z,11.37
2019-02-27T22:55:27.241Z,12.77
2019-02-27T22:57:54.775Z,12.43
2019-02-27T23:00:37.698Z,12.30
2019-02-27T23:03:04.428Z,13.97
2019-02-27T23:05:31.158Z,13.90
2019-02-27T23:07:57.890Z,14.67
2019-02-27T23:10:24.637Z,15.38
2019-02-27T23:12:51.351Z,14.50
2019-02-27T23:15:18.091Z,14.87
2019-02-27T23:17:44.813Z,13.87
2019-02-27T23:20:11.546Z,14.87
2019-02-27T23:22:38.261Z,13.53
2019-02-27T23:25:05.026Z,15.70
2019-02-27T23:27:31.758Z,14.40
2019-02-27T23:29:58.494Z,15.63
2019-02-27T23:32:28.640Z,14.33
2019-02-27T23:34:53.133Z,15.27
2019-02-27T23:37:19.853Z,16.67
2019-02-27T23:39:46.605Z,16.03
2019-02-27T23:42:13.338Z,16.17
2019-02-27T23:44:40.078Z,16.47
2019-02-27T23:47:06.802Z,15.70
2019-02-27T23:49:33.585Z,14.60
2019-02-27T23:52:00.350Z,13.87
2019-02-27T23:54:27.590Z,14.63
2019-02-27T23:56:54.342Z,14.77
2019-02-27T23:59:21.082Z,14.60
